Harrison Valley, Pennsylvania
Current Conditions -  °F | °C
As of 1:35 PM on Thursday 30 Oct 2014 (Local Time) from KN38 Reporting Station
Overcast Overcast  
Wind Chill: 39°   Ceiling: 3200
Heat Index: 45°   Visibility: 10mi
Dew Point: 34°   Wind: 10mph
Humidity: 66%   Direction: 320°NW
Pressure: 30.04"   Gusts: NA
Location:  41.94°N, 77.65°W
Report Text: KN38 301735Z AUTO 32009KT 10SM OVC032 07/01 A3004 RMK AO2
Loading
Personal Weather Stations






























Interactive Weather Map
Tropical Storm Tracking
New forecast layout! Learn more

10-Day Weather Forecast

Advertisements
Track Severe Weather on mobile